ASN logo
Last updated: 25 October 2020
Status:Offizieller Zwischenbericht
Datum:Dienstag 25 Dezember 2012
Zeit:18:54
Flugzeugtyp:Silhouette image of generic AN72 model; specific model in this crash may look slightly different
Antonow An-72-100
Fluggesellschaft:Kazakhstan Border Guards
Kennzeichen: UP-72859
Werknummer: 36576092859
Baujahr: 1990
Triebwerk: 2 Lotarev D-36-2A
Besatzung:Todesopfer: 7 / Insassen: 7
Fluggäste:Todesopfer: 20 / Insassen: 20
Gesamt:Todesopfer: 27 / Insassen: 27
Sachschaden: Zerstört
Konsequenzen: Written off (damaged beyond repair)
Unfallort:21 km (13.1 Meilen) von Shymkent Airport (CIT) (   Kasachstan)
Flugphase: Während des Fluges (ENR)
Betriebsart:Militär
Flug von:Astana International Airport (TSE/UACC), Kasachstan
Flug nach:Shymkent Airport (CIT/UAII), Kasachstan
Unfallbericht:
An Antonov 72 transport plane crashed some 20 km from Shymkent Airport (CIT), Kazakhstan. All 20 passengers and seven crew members were killed.
The airplane was operated by the Kazakhstan Border Guards. Among those killed was acting director of National Security Committee's Border Guard Service, Colonel Turganbek Stambekov.
The airplane took off from Astana Airport (TSE) at 16:52 with destination Shymkent Airport (CIT). Shortly after takeoff the autopilot failed. The captain then decided to fly the plane manually. Two minutes and 40 seconds after takeoff the radio altimeter also failed. The flight was continued using barometric altimeters. Nineteen minutes into the flight there was a momentary failure of these altimeters as well, with the altitude dropping from 696 to -1375 metres. Three minutes later the altimeter again suffered a momentary spike, this time from 749 m to 2672 m.
En route and during the descent towards Shymkent the flight encountered poor weather with heavy snowfall and limited visibility. During the approach to Shymkent, the captain failed to set the correct pressure for the barometric altimeters. The altitude indicated was therefore off by about 385 metres. The airplane struck the slope of a ravine 21 km short of the runway and broke up.

Informationsquelle:
» Press Service of the National Security Committee
» Prosecutor General's office of Republic of Kazakhstan

METAR Weather report:
12:30 UTC / 18:30 local time:
UAII 251230Z 30004MPS 5000 -SN BR OVC004 M02/M02 Q1016 282///45 TEMPO 1000 RASN BR OVC003 RMK QBB120 QFE725/0967

13:00 UTC / 19:00 local time:
UAII 251300Z 29005MPS 0800 R28/2000 +SN BKN004 OVC010 M03/M03 Q1016 28391040 TEMPO 0500 SN FZFG VV002 RMK QBB120 QFE725/0967
Wind 290 degrees at 10 knots; Visibility: 800 m in heavy snow; runway visual range of runway 28: 2000 m; broken clouds at 400 feet AGL, overcast cloud deck at 1000 feet AGL; Temperature: -3.0°C, Dew point: -3.0°C; Pressure: 1016 mb; Temporary changes: visibility 500m in snow and freezing fog; vertical visibility 2 m.

13:30 UTC / 19:30 local time:
UAII 251330Z 29006G11MPS 0900 R28/P2000 +SN OVC004 M06/M06 Q1018 28491040 TEMPO 0500 SN FZFG VV002 RMK QBB130 QFE726/0968


Fotos

photo of Antonov-An-72-100-UN-72859
accident date: 25-12-2012
type: Antonov An-72-100
registration: UN-72859
 

Video, social media

Map
This map shows the airport of departure and the intended destination of the flight. The line between the airports does not display the exact flight path.
Distance from Astana International Airport to Shymkent Airport as the crow flies is 967 km (605 miles).
Accident location: Global; accuracy within tens or hundreds of kilometers.

This information is not presented as the Flight Safety Foundation or the Aviation Safety Network’s opinion as to the cause of the accident. It is preliminary and is based on the facts as they are known at this time.
languages: languages

Share

Antonov An-72 / 74

  • 169+ built
  • 12th loss
  • 5th Fataler Unfall
  • 2nd worst accident
» safety profile

 Kasachstan
  • 7th worst accident
» safety profile